Time;durP1;ratioP1;P1;durP2;ratioP2;P2;SDS_P1;SDS_P2;PMS_P1;PMS_P2;Temp;Humidity;BMP_temperature;BMP_pressure;BME280_temperature;BME280_humidity;BME280_pressure;Samples;Min_cycle;Max_cycle;Signal;HPM_P1;HPM_P2
2022/01/10 00:01:14;;;;;;;1999.90;999.90;;;;;;;-0.19;60.33;100392.69;4957688;22;99607;-70
2022/01/10 00:03:42;;;;;;;1999.90;999.90;;;;;;;-0.21;60.54;100403.91;4953336;28;99074;-71
2022/01/10 00:06:10;;;;;;;1999.90;999.90;;;;;;;-0.22;60.57;100400.38;4954457;28;97389;-73
2022/01/10 00:08:40;;;;;;;1999.90;999.90;;;;;;;-0.21;60.79;100411.75;4951731;28;98593;-71
2022/01/10 00:11:08;;;;;;;1999.90;999.90;;;;;;;-0.23;60.82;100408.13;4934504;28;99726;-68
2022/01/10 00:13:35;;;;;;;1999.90;999.90;;;;;;;-0.25;60.58;100415.91;4931731;28;97604;-70
2022/01/10 00:16:03;;;;;;;1999.90;999.90;;;;;;;-0.25;60.71;100418.50;4932315;28;97146;-69
2022/01/10 00:18:32;;;;;;;1999.90;999.90;;;;;;;-0.22;60.45;100420.38;4931017;28;97577;-69
2022/01/10 00:21:00;;;;;;;1999.90;999.90;;;;;;;-0.23;60.86;100426.44;4933312;28;97879;-68
2022/01/10 00:23:28;;;;;;;1999.90;999.90;;;;;;;-0.22;60.46;100429.13;4932812;28;98064;-69
2022/01/10 00:25:56;;;;;;;1999.90;999.90;;;;;;;-0.22;60.62;100429.13;4915071;28;102133;-68
2022/01/10 00:28:24;;;;;;;1999.90;999.90;;;;;;;-0.22;60.70;100436.97;4935907;28;98446;-70
2022/01/10 00:30:51;;;;;;;1999.90;999.90;;;;;;;-0.24;60.73;100433.38;4931752;28;98303;-69
2022/01/10 00:33:19;;;;;;;1999.90;999.90;;;;;;;-0.27;60.61;100433.19;4933527;28;98094;-72
2022/01/10 00:35:48;;;;;;;1999.90;999.90;;;;;;;-0.27;60.84;100441.03;4930461;28;98677;-70
2022/01/10 00:38:16;;;;;;;1999.90;999.90;;;;;;;-0.27;61.02;100448.88;4931101;28;97628;-72
2022/01/10 00:40:44;;;;;;;1999.90;999.90;;;;;;;-0.27;60.71;100441.03;4931730;28;99458;-72
2022/01/10 00:43:18;;;;;;;1999.90;999.90;;;;;;;-0.29;60.90;100450.50;4931684;28;98755;-72
2022/01/10 00:45:46;;;;;;;1999.90;999.90;;;;;;;-0.28;60.50;100448.81;4932538;28;97251;-74
2022/01/10 00:48:14;;;;;;;1999.90;999.90;;;;;;;-0.34;61.27;100456.28;4916622;28;99444;-73
2022/01/10 00:50:42;;;;;;;1999.90;999.90;;;;;;;-0.33;61.03;100458.97;4932771;28;97811;-75
2022/01/10 00:53:11;;;;;;;1999.90;999.90;;;;;;;-0.41;61.76;100459.34;4946860;28;99856;-74
2022/01/10 00:55:39;;;;;;;1999.90;999.90;;;;;;;-0.42;61.47;100463.66;4918478;28;98238;-71
2022/01/10 00:58:06;;;;;;;1999.90;999.90;;;;;;;-0.41;61.33;100468.06;4925718;28;97622;-74
2022/01/10 01:00:34;;;;;;;1999.90;999.90;;;;;;;-0.41;61.24;100470.66;4950439;28;98449;-69
2022/01/10 01:03:02;;;;;;;1999.90;999.90;;;;;;;-0.41;61.50;100475.91;4931338;28;98032;-74
2022/01/10 01:05:34;;;;;;;1999.90;999.90;;;;;;;-0.39;61.18;100482.13;4935960;28;97414;-72
2022/01/10 01:08:06;;;;;;;1999.90;999.90;;;;;;;-0.34;61.16;100482.41;4934745;28;98960;-71
2022/01/10 01:13:28;;;;;;;1999.90;999.90;;;;;;;-0.30;61.05;100493.13;4903840;28;99257;-70
2022/01/10 01:16:12;;;;;;;1999.90;999.90;;;;;;;-0.25;61.02;100501.25;4935271;28;98212;-75
2022/01/10 01:19:08;;;;;;;1999.90;999.90;;;;;;;-0.26;61.17;100502.06;4936116;28;97763;-72
2022/01/10 01:24:22;;;;;;;1999.90;999.90;;;;;;;-0.24;60.88;100514.41;4934959;28;100020;-73
2022/01/10 01:26:53;;;;;;;1999.90;999.90;;;;;;;-0.22;60.53;100524.97;4936309;28;99674;-72
2022/01/10 01:29:22;;;;;;;1999.90;999.90;;;;;;;-0.22;60.77;100531.09;4936333;28;97663;-71
2022/01/10 01:31:50;;;;;;;1999.90;999.90;;;;;;;-0.20;60.78;100533.78;4926827;28;98690;-69
2022/01/10 01:34:19;;;;;;;1999.90;999.90;;;;;;;-0.18;60.97;100533.09;4911167;28;99516;-69
2022/01/10 01:36:51;;;;;;;1999.90;999.90;;;;;;;-0.20;60.80;100539.94;4922894;28;98792;-69
2022/01/10 01:39:21;;;;;;;1999.90;999.90;;;;;;;-0.21;60.84;100543.34;4937511;28;97665;-72
2022/01/10 01:42:02;;;;;;;1999.90;999.90;;;;;;;-0.22;61.02;100551.09;4919696;28;98996;-70
2022/01/10 01:44:30;;;;;;;1999.90;999.90;;;;;;;-0.22;60.90;100554.63;4920546;28;100052;-74
2022/01/10 01:46:58;;;;;;;1999.90;999.90;;;;;;;-0.23;60.72;100560.66;4933544;28;97867;-70
2022/01/10 01:49:27;;;;;;;1999.90;999.90;;;;;;;-0.25;60.90;100572.75;4924502;28;97484;-69
2022/01/10 01:51:54;;;;;;;1999.90;999.90;;;;;;;-0.25;60.99;100575.38;4936278;28;99000;-74
2022/01/10 01:54:22;;;;;;;1999.90;999.90;;;;;;;-0.25;61.16;100583.22;4937999;28;98913;-70
2022/01/10 01:56:52;;;;;;;1999.90;999.90;;;;;;;-0.25;60.92;100583.22;4935816;28;97559;-69
2022/01/10 01:59:21;;;;;;;1999.90;999.90;;;;;;;-0.24;60.82;100595.47;4934699;28;98067;-69
2022/01/10 02:01:49;;;;;;;1999.90;999.90;;;;;;;-0.26;60.86;100596.16;4919691;28;98589;-72
2022/01/10 02:04:17;;;;;;;1999.90;999.90;;;;;;;-0.29;61.30;100590.75;4920200;28;98573;-70
2022/01/10 02:06:47;;;;;;;1999.90;999.90;;;;;;;-0.28;61.09;100601.31;4915609;28;96997;-70
2022/01/10 02:09:15;;;;;;;1999.90;999.90;;;;;;;-0.29;60.85;100602.13;4917331;28;97185;-74
2022/01/10 02:11:47;;;;;;;1999.90;999.90;;;;;;;-0.28;60.91;100598.69;4936432;28;98860;-73
2022/01/10 02:14:17;;;;;;;1999.90;999.90;;;;;;;-0.27;60.88;100604.84;4933614;28;99546;-69
2022/01/10 02:16:54;;;;;;;1999.90;999.90;;;;;;;-0.27;60.91;100604.84;4918815;28;98300;-71
2022/01/10 02:19:35;;;;;;;1999.90;999.90;;;;;;;-0.27;61.00;100610.06;4919353;28;98223;-69
2022/01/10 02:22:04;;;;;;;1999.90;999.90;;;;;;;-0.23;60.87;100618.16;4938397;28;98261;-69
2022/01/10 02:24:52;;;;;;;1999.90;999.90;;;;;;;-0.23;60.93;100617.28;4906300;28;98571;-73
2022/01/10 02:27:21;;;;;;;1999.90;999.90;;;;;;;-0.22;61.10;100633.06;4936213;28;98878;-72
2022/01/10 02:29:49;;;;;;;1999.90;999.90;;;;;;;-0.18;61.01;100631.53;4954744;28;97184;-69
2022/01/10 02:32:17;;;;;;;1999.90;999.90;;;;;;;-0.17;60.82;100629.00;4936546;28;100458;-73
2022/01/10 02:34:45;;;;;;;1999.90;999.90;;;;;;;-0.14;60.54;100636.16;4936649;28;97127;-71
2022/01/10 02:40:13;;;;;;;1999.90;999.90;;;;;;;-0.15;61.05;100648.31;5044519;27;97589;-73
2022/01/10 02:42:41;;;;;;;1999.90;999.90;;;;;;;-0.12;60.94;100653.72;5018408;27;98162;-72
2022/01/10 02:45:12;;;;;;;1999.90;999.90;;;;;;;-0.08;60.93;100654.81;5028236;27;99454;-68
2022/01/10 02:47:40;;;;;;;1999.90;999.90;;;;;;;-0.06;60.72;100658.44;5025127;27;98678;-72
2022/01/10 02:50:08;;;;;;;1999.90;999.90;;;;;;;-0.05;60.88;100655.03;5043947;27;97786;-71
2022/01/10 02:52:36;;;;;;;1999.90;999.90;;;;;;;-0.04;60.71;100668.19;5035248;27;97943;-71
2022/01/10 02:55:06;;;;;;;1999.90;999.90;;;;;;;-0.03;60.53;100669.09;5022976;27;102720;-70
2022/01/10 02:57:35;;;;;;;1999.90;999.90;;;;;;;-0.04;60.87;100673.41;5040365;27;98253;-70
2022/01/10 03:00:06;;;;;;;1999.90;999.90;;;;;;;-0.02;60.87;100677.03;5020975;27;99570;-69
2022/01/10 03:02:35;;;;;;;1999.90;999.90;;;;;;;0.01;60.74;100682.44;5032537;27;97402;-71
2022/01/10 03:05:04;;;;;;;1999.90;999.90;;;;;;;0.03;60.72;100691.28;5038738;27;98691;-70
2022/01/10 03:07:32;;;;;;;1999.90;999.90;;;;;;;0.05;60.86;100694.91;5025103;27;99583;-71
2022/01/10 03:10:00;;;;;;;1999.90;999.90;;;;;;;0.07;60.80;100703.75;5040154;27;96903;-68
2022/01/10 03:12:30;;;;;;;1999.90;999.90;;;;;;;0.07;60.53;100708.06;5044510;27;97264;-69
2022/01/10 03:15:00;;;;;;;1999.90;999.90;;;;;;;0.08;60.29;100713.38;5041367;27;97652;-72
2022/01/10 03:17:29;;;;;;;1999.90;999.90;;;;;;;0.10;60.47;100717.00;5027723;27;98721;-72
2022/01/10 03:19:57;;;;;;;1999.90;999.90;;;;;;;0.10;60.47;100724.84;5047032;27;97602;-67
2022/01/10 03:22:26;;;;;;;1999.90;999.90;;;;;;;0.10;60.64;100729.19;5045069;27;100228;-68
2022/01/10 03:24:54;;;;;;;1999.90;999.90;;;;;;;0.10;60.69;100730.09;5061228;27;99343;-70
2022/01/10 03:27:23;;;;;;;1999.90;999.90;;;;;;;0.12;60.66;100735.41;5041419;27;97329;-68
2022/01/10 03:29:53;;;;;;;1999.90;999.90;;;;;;;0.10;60.70;100740.53;5026499;27;98895;-70
2022/01/10 03:32:24;;;;;;;1999.90;999.90;;;;;;;0.06;60.66;100740.28;5021883;27;97205;-70
2022/01/10 03:34:57;;;;;;;1999.90;999.90;;;;;;;0.05;61.03;100746.31;5026555;27;100824;-67
2022/01/10 03:37:25;;;;;;;1999.90;999.90;;;;;;;0.01;61.12;100742.59;5024489;27;99969;-68
2022/01/10 03:39:53;;;;;;;1999.90;999.90;;;;;;;0.00;60.78;100743.41;5043069;27;96885;-68
2022/01/10 03:42:21;;;;;;;1999.90;999.90;;;;;;;0.02;60.92;100752.28;5013983;27;99411;-68
2022/01/10 03:44:50;;;;;;;1999.90;999.90;;;;;;;0.02;60.92;100757.50;5039300;27;100411;-69
2022/01/10 03:47:18;;;;;;;1999.90;999.90;;;;;;;0.05;60.98;100757.69;5043810;27;99229;-69
2022/01/10 03:49:47;;;;;;;1999.90;999.90;;;;;;;0.08;60.79;100762.22;5040538;27;97277;-73
2022/01/10 03:52:15;;;;;;;1999.90;999.90;;;;;;;0.10;60.69;100766.72;5013333;27;97343;-71
2022/01/10 03:54:43;;;;;;;1999.90;999.90;;;;;;;0.12;60.59;100775.56;5009723;27;99200;-70
2022/01/10 03:57:12;;;;;;;1999.90;999.90;;;;;;;0.14;60.01;100773.03;5024766;27;99380;-70
2022/01/10 03:59:40;;;;;;;1999.90;999.90;;;;;;;0.14;60.53;100781.78;5030373;27;97192;-67
2022/01/10 04:02:08;;;;;;;1999.90;999.90;;;;;;;0.11;60.77;100791.16;5029456;27;97396;-70
2022/01/10 04:04:38;;;;;;;1999.90;999.90;;;;;;;0.09;60.69;100793.69;5029258;27;99334;-69
2022/01/10 04:07:09;;;;;;;1999.90;999.90;;;;;;;0.08;60.66;100797.09;5028427;27;98807;-72
2022/01/10 04:09:37;;;;;;;1999.90;999.90;;;;;;;0.07;60.87;100792.69;5023328;27;98709;-69
2022/01/10 04:12:05;;;;;;;1999.90;999.90;;;;;;;0.07;60.81;100803.16;5028454;27;96904;-68
2022/01/10 04:14:32;;;;;;;1999.90;999.90;;;;;;;0.09;60.71;100809.38;5021481;27;98826;-69
2022/01/10 04:17:00;;;;;;;1999.90;999.90;;;;;;;0.12;60.69;100813.88;5031397;27;98093;-72
2022/01/10 04:19:28;;;;;;;1999.90;999.90;;;;;;;0.12;60.68;100821.75;5007121;27;97842;-71
2022/01/10 04:21:56;;;;;;;1999.90;999.90;;;;;;;0.10;60.80;100826.00;5029106;27;101131;-68
2022/01/10 04:24:25;;;;;;;1999.90;999.90;;;;;;;0.12;60.58;100826.97;5020834;27;99348;-69
2022/01/10 04:26:52;;;;;;;1999.90;999.90;;;;;;;0.13;60.59;100834.03;5021537;27;98768;-67
2022/01/10 04:29:20;;;;;;;1999.90;999.90;;;;;;;0.12;60.53;100833.13;5021450;27;98834;-67
2022/01/10 04:31:48;;;;;;;1999.90;999.90;;;;;;;0.14;60.60;100834.13;5013299;27;97858;-69
2022/01/10 04:34:16;;;;;;;1999.90;999.90;;;;;;;0.15;60.60;100832.41;5024736;27;98881;-69
2022/01/10 04:36:44;;;;;;;1999.90;999.90;;;;;;;0.14;60.36;100841.97;5002717;27;99377;-70
2022/01/10 04:39:13;;;;;;;1999.90;999.90;;;;;;;0.16;60.78;100848.19;5019328;27;97081;-68
2022/01/10 04:41:43;;;;;;;1999.90;999.90;;;;;;;0.19;60.63;100847.50;5005467;27;98995;-68
2022/01/10 04:44:10;;;;;;;1999.90;999.90;;;;;;;0.18;60.55;100848.28;5017987;27;98708;-68
2022/01/10 04:46:39;;;;;;;1999.90;999.90;;;;;;;0.16;60.67;100852.53;5006851;27;100350;-68
2022/01/10 04:49:12;;;;;;;1999.90;999.90;;;;;;;0.16;60.59;100850.81;5024254;27;97377;-69
2022/01/10 04:51:39;;;;;;;1999.90;999.90;;;;;;;0.16;60.82;100860.38;5006526;27;97787;-67
2022/01/10 04:54:07;;;;;;;1999.90;999.90;;;;;;;0.12;60.86;100874.97;5025613;27;99453;-68
2022/01/10 04:56:35;;;;;;;1999.90;999.90;;;;;;;0.07;60.70;100879.00;5036450;27;99341;-69
2022/01/10 04:59:04;;;;;;;1999.90;999.90;;;;;;;0.01;61.06;100886.47;5034220;27;98318;-70
2022/01/10 05:01:32;;;;;;;1999.90;999.90;;;;;;;0.01;61.13;100886.47;4991056;27;98728;-69
2022/01/10 05:04:01;;;;;;;1999.90;999.90;;;;;;;-0.02;61.13;100891.50;5001708;27;99344;-73
2022/01/10 05:06:29;;;;;;;1999.90;999.90;;;;;;;-0.04;61.16;100900.94;5005257;27;99330;-71
2022/01/10 05:08:58;;;;;;;1999.90;999.90;;;;;;;-0.06;61.28;100905.19;5022945;27;97560;-69
2022/01/10 05:11:48;;;;;;;1999.90;999.90;;;;;;;-0.07;61.51;100908.63;5002380;27;97368;-68
2022/01/10 05:14:18;;;;;;;1999.90;999.90;;;;;;;-0.09;61.65;100915.44;5005835;27;98537;-70
2022/01/10 05:16:46;;;;;;;1999.90;999.90;;;;;;;-0.11;61.36;100921.38;5009999;27;97586;-69
2022/01/10 05:19:14;;;;;;;1999.90;999.90;;;;;;;-0.09;61.41;100920.69;5014484;27;96900;-71
2022/01/10 05:21:42;;;;;;;1999.90;999.90;;;;;;;-0.10;61.52;100934.53;4995912;27;99498;-71
2022/01/10 05:24:10;;;;;;;1999.90;999.90;;;;;;;-0.12;61.34;100933.53;5017522;27;99716;-69
2022/01/10 05:26:38;;;;;;;1999.90;999.90;;;;;;;-0.10;61.19;100944.13;5011457;27;99788;-69
2022/01/10 05:29:07;;;;;;;1999.90;999.90;;;;;;;-0.16;61.85;100952.47;5003057;27;96811;-68
2022/01/10 05:31:36;;;;;;;1999.90;999.90;;;;;;;-0.18;61.46;100955.78;5021514;27;96864;-70
2022/01/10 05:34:18;;;;;;;1999.90;999.90;;;;;;;-0.19;61.69;100967.06;5019463;27;98330;-69
2022/01/10 05:36:46;;;;;;;1999.90;999.90;;;;;;;-0.26;61.98;100967.41;5009273;27;97458;-69
2022/01/10 05:39:14;;;;;;;1999.90;999.90;;;;;;;-0.29;62.06;100982.91;5023922;27;96908;-71
2022/01/10 05:41:46;;;;;;;1999.90;999.90;;;;;;;-0.35;62.33;100991.25;5021828;27;96730;-72
2022/01/10 05:44:15;;;;;;;1999.90;999.90;;;;;;;-0.33;62.11;101007.03;5038023;27;99930;-68
2022/01/10 05:46:46;;;;;;;1999.90;999.90;;;;;;;-0.30;61.87;101007.25;5026512;27;97945;-68
2022/01/10 05:49:19;;;;;;;1999.90;999.90;;;;;;;-0.25;61.62;101022.47;5013833;27;97348;-68
2022/01/10 05:51:47;;;;;;;1999.90;999.90;;;;;;;-0.27;61.74;101026.69;5007010;27;98511;-68
2022/01/10 05:54:30;;;;;;;1999.90;999.90;;;;;;;-0.29;62.09;101027.34;5003071;27;105006;-71
2022/01/10 05:56:58;;;;;;;1999.90;999.90;;;;;;;-0.26;61.80;101035.41;5002853;27;99798;-68
2022/01/10 05:59:28;;;;;;;1999.90;999.90;;;;;;;-0.22;61.46;101046.19;5016313;27;97843;-72
2022/01/10 06:01:59;;;;;;;1999.90;999.90;;;;;;;-0.18;61.29;101052.53;5025480;27;100458;-68
2022/01/10 06:04:30;;;;;;;1999.90;999.90;;;;;;;-0.18;61.40;101058.69;5030100;27;98255;-72
2022/01/10 06:07:06;;;;;;;1999.90;999.90;;;;;;;-0.15;61.33;101061.47;5031549;27;97405;-71
2022/01/10 06:09:35;;;;;;;1999.90;999.90;;;;;;;-0.13;61.28;101059.88;5025302;27;98602;-70
2022/01/10 06:12:03;;;;;;;1999.90;999.90;;;;;;;-0.12;61.38;101064.28;5004161;27;96925;-71
2022/01/10 06:14:31;;;;;;;1999.90;999.90;;;;;;;-0.09;61.37;101067.13;5030523;27;98013;-70
2022/01/10 06:17:01;;;;;;;1999.90;999.90;;;;;;;-0.09;61.08;101069.75;5016772;27;100090;-70
2022/01/10 06:19:29;;;;;;;1999.90;999.90;;;;;;;-0.08;60.82;101079.41;5037084;27;97116;-68
2022/01/10 06:21:56;;;;;;;1999.90;999.90;;;;;;;-0.09;60.85;101074.06;5037262;27;96947;-72
2022/01/10 06:24:25;;;;;;;1999.90;999.90;;;;;;;-0.08;61.00;101081.09;5034658;27;97874;-69
2022/01/10 06:26:53;;;;;;;1999.90;999.90;;;;;;;-0.09;60.84;101080.22;5008308;27;99239;-68
2022/01/10 06:29:22;;;;;;;1999.90;999.90;;;;;;;-0.09;61.01;101085.44;5027793;27;97005;-70
2022/01/10 06:31:50;;;;;;;1999.90;999.90;;;;;;;-0.08;61.19;101091.56;5030279;27;97325;-67
2022/01/10 06:34:20;;;;;;;1999.90;999.90;;;;;;;-0.06;60.82;101092.59;5017782;27;99157;-68
2022/01/10 06:36:48;;;;;;;1999.90;999.90;;;;;;;-0.08;61.20;101102.03;5034799;27;98252;-69
2022/01/10 06:39:17;;;;;;;1999.90;999.90;;;;;;;-0.10;61.08;101107.16;5024312;27;97395;-70
2022/01/10 06:41:47;;;;;;;1999.90;999.90;;;;;;;-0.11;61.33;101113.19;5015744;27;98180;-69
2022/01/10 06:44:15;;;;;;;1999.90;999.90;;;;;;;-0.12;61.43;101118.34;5013639;27;99733;-71
2022/01/10 06:46:42;;;;;;;1999.90;999.90;;;;;;;-0.13;61.37;101127.88;5035369;27;98420;-68
2022/01/10 06:49:11;;;;;;;1999.90;999.90;;;;;;;-0.13;61.09;101135.72;5025723;27;96705;-67
2022/01/10 06:51:40;;;;;;;1999.90;999.90;;;;;;;-0.16;61.14;101148.59;5019896;27;96805;-67
2022/01/10 06:54:08;;;;;;;1999.90;999.90;;;;;;;-0.14;61.26;101157.47;5010890;27;98898;-68
2022/01/10 06:56:36;;;;;;;1999.90;999.90;;;;;;;-0.14;60.97;101161.78;5007451;27;97287;-72
2022/01/10 06:59:04;;;;;;;1999.90;999.90;;;;;;;-0.20;61.76;101162.25;5000687;27;97015;-71
2022/01/10 07:01:40;;;;;;;1999.90;999.90;;;;;;;-0.18;61.53;101178.06;5032599;27;97786;-68
2022/01/10 07:04:09;;;;;;;1999.90;999.90;;;;;;;-0.19;61.38;101182.38;5019560;27;99106;-68
2022/01/10 07:06:38;;;;;;;1999.90;999.90;;;;;;;-0.18;61.59;101188.50;5016861;27;98602;-69
2022/01/10 07:09:16;;;;;;;1999.90;999.90;;;;;;;-0.18;61.56;101191.13;5021062;27;97855;-69
2022/01/10 07:11:56;;;;;;;1999.90;999.90;;;;;;;-0.15;61.20;101199.19;5022750;27;96760;-68
2022/01/10 07:14:24;;;;;;;1999.90;999.90;;;;;;;-0.14;61.18;101204.53;5056549;27;96774;-70
2022/01/10 07:16:56;;;;;;;1999.90;999.90;;;;;;;-0.13;61.52;101214.19;5039538;27;98597;-68
2022/01/10 07:19:24;;;;;;;1999.90;999.90;;;;;;;-0.15;61.25;101213.16;5021103;27;96844;-68
2022/01/10 07:21:53;;;;;;;1999.90;999.90;;;;;;;-0.15;61.01;101214.88;5036232;27;97305;-68
2022/01/10 07:24:23;;;;;;;1999.90;999.90;;;;;;;-0.16;60.97;101223.53;5015088;27;100336;-70
2022/01/10 07:26:51;;;;;;;1999.90;999.90;;;;;;;-0.17;61.03;101225.22;5020898;27;102693;-69
2022/01/10 07:29:19;;;;;;;1999.90;999.90;;;;;;;-0.19;61.12;101231.16;5023331;27;97652;-69
2022/01/10 07:31:47;;;;;;;1999.90;999.90;;;;;;;-0.20;61.45;101230.25;5035674;27;97214;-69
2022/01/10 07:34:16;;;;;;;1999.90;999.90;;;;;;;-0.22;61.04;101242.31;5039315;27;97456;-70
2022/01/10 07:36:44;;;;;;;1999.90;999.90;;;;;;;-0.22;61.20;101244.91;5037219;27;97663;-71
2022/01/10 07:39:11;;;;;;;1999.90;999.90;;;;;;;-0.19;61.53;101255.59;5042532;27;97758;-71
2022/01/10 07:41:46;;;;;;;1999.90;999.90;;;;;;;-0.18;60.99;101260.03;5033361;27;97606;-70
2022/01/10 07:44:24;;;;;;;1999.90;999.90;;;;;;;-0.17;60.96;101258.31;5023096;27;99657;-69
2022/01/10 07:46:52;;;;;;;1999.90;999.90;;;;;;;-0.16;61.02;101274.13;5007953;27;101568;-69
2022/01/10 07:49:20;;;;;;;1999.90;999.90;;;;;;;-0.13;60.99;101273.44;5040335;27;97216;-71
2022/01/10 07:51:47;;;;;;;1999.90;999.90;;;;;;;-0.10;60.81;101279.78;5032495;27;98261;-69
2022/01/10 07:54:15;;;;;;;1999.90;999.90;;;;;;;-0.08;61.17;101282.50;5034535;27;98604;-71
2022/01/10 07:56:43;;;;;;;1999.90;999.90;;;;;;;-0.08;60.89;101288.66;5039651;27;98703;-69
2022/01/10 07:59:12;;;;;;;1999.90;999.90;;;;;;;-0.10;61.07;101295.47;5019660;27;97705;-70
2022/01/10 08:01:40;;;;;;;1999.90;999.90;;;;;;;-0.06;60.78;101301.84;5034087;27;98572;-69
2022/01/10 08:04:08;;;;;;;1999.90;999.90;;;;;;;-0.04;60.76;101306.38;5032386;27;96883;-72
2022/01/10 08:06:36;;;;;;;1999.90;999.90;;;;;;;-0.08;61.12;101306.97;5012039;27;100032;-70
2022/01/10 08:09:03;;;;;;;1999.90;999.90;;;;;;;-0.08;60.96;101312.19;5026221;27;96815;-69
2022/01/10 08:11:31;;;;;;;1999.90;999.90;;;;;;;-0.07;61.09;101315.72;5038806;27;97313;-70
2022/01/10 08:14:00;;;;;;;1999.90;999.90;;;;;;;-0.10;61.29;101310.28;5041660;27;97798;-69
2022/01/10 08:16:30;;;;;;;1999.90;999.90;;;;;;;-0.11;61.16;101319.81;5035817;27;98700;-73
2022/01/10 08:18:57;;;;;;;1999.90;999.90;;;;;;;-0.10;61.19;101328.59;5039307;27;97050;-68
2022/01/10 08:21:25;;;;;;;1999.90;999.90;;;;;;;-0.09;61.33;101336.53;5034636;27;97010;-70
2022/01/10 08:23:53;;;;;;;1999.90;999.90;;;;;;;-0.06;61.16;101341.97;5033109;27;101002;-69
2022/01/10 08:26:21;;;;;;;1999.90;999.90;;;;;;;-0.04;61.10;101345.63;5040698;27;99129;-69
2022/01/10 08:28:49;;;;;;;1999.90;999.90;;;;;;;-0.00;60.79;101346.75;5036607;27;97204;-68
2022/01/10 08:31:16;;;;;;;1999.90;999.90;;;;;;;0.03;60.90;101357.41;5038348;27;97374;-68
2022/01/10 08:33:47;;;;;;;1999.90;999.90;;;;;;;0.04;60.72;101368.03;5038726;27;97527;-68
2022/01/10 08:36:15;;;;;;;1999.90;999.90;;;;;;;0.07;61.08;101369.94;5038070;27;100009;-71
2022/01/10 08:38:42;;;;;;;1999.90;999.90;;;;;;;0.08;60.98;101377.88;5039493;27;96981;-68
2022/01/10 08:41:10;;;;;;;1999.90;999.90;;;;;;;0.11;61.13;101370.28;5035185;27;97116;-68
2022/01/10 08:43:38;;;;;;;1999.90;999.90;;;;;;;0.12;60.74;101377.31;5031273;27;98706;-68
2022/01/10 08:46:06;;;;;;;1999.90;999.90;;;;;;;0.16;60.78;101384.59;5033749;27;99362;-68
2022/01/10 08:48:50;;;;;;;1999.90;999.90;;;;;;;0.18;60.83;101390.84;5041557;27;96784;-69
2022/01/10 08:51:18;;;;;;;1999.90;999.90;;;;;;;0.19;60.84;101384.81;5040375;27;96959;-70
2022/01/10 08:53:45;;;;;;;1999.90;999.90;;;;;;;0.23;60.40;101399.00;5035347;27;99571;-68
2022/01/10 08:56:13;;;;;;;1999.90;999.90;;;;;;;0.24;60.82;101408.75;5034847;27;97580;-70
2022/01/10 08:58:41;;;;;;;1999.90;999.90;;;;;;;0.24;60.90;101406.13;5041122;27;97116;-71
2022/01/10 09:01:09;;;;;;;1999.90;999.90;;;;;;;0.26;60.85;101420.22;5032875;27;98278;-68
2022/01/10 09:03:38;;;;;;;1999.90;999.90;;;;;;;0.26;60.76;101417.63;5033784;27;99839;-69
2022/01/10 09:06:07;;;;;;;1999.90;999.90;;;;;;;0.24;61.19;101427.06;5035927;27;97994;-68
2022/01/10 09:08:37;;;;;;;1999.90;999.90;;;;;;;0.23;60.55;101426.09;5026751;27;98764;-69
2022/01/10 09:11:08;;;;;;;1999.90;999.90;;;;;;;0.25;60.91;101431.47;5036588;27;97199;-70
2022/01/10 09:13:36;;;;;;;1999.90;999.90;;;;;;;0.26;60.48;101428.09;5041164;27;98720;-70
2022/01/10 09:16:04;;;;;;;1999.90;999.90;;;;;;;0.25;60.77;101443.69;5036206;27;98757;-69
2022/01/10 09:18:32;;;;;;;1999.90;999.90;;;;;;;0.24;60.94;101440.16;5036489;27;96825;-69
2022/01/10 09:21:00;;;;;;;1999.90;999.90;;;;;;;0.25;60.61;101451.53;5043428;27;98796;-69
2022/01/10 09:23:29;;;;;;;1999.90;999.90;;;;;;;0.23;60.61;101457.50;5050467;27;99174;-69
2022/01/10 09:25:56;;;;;;;1999.90;999.90;;;;;;;0.20;60.86;101459.91;5037907;27;99752;-71
2022/01/10 09:28:24;;;;;;;1999.90;999.90;;;;;;;0.19;60.81;101468.53;5020696;27;98000;-68
2022/01/10 09:30:52;;;;;;;1999.90;999.90;;;;;;;0.18;60.80;101469.34;5036257;27;97178;-68
2022/01/10 09:33:20;;;;;;;1999.90;999.90;;;;;;;0.20;60.81;101475.63;5036914;27;98823;-69
2022/01/10 09:35:48;;;;;;;1999.90;999.90;;;;;;;0.18;61.00;101479.81;5034518;27;99310;-68
2022/01/10 09:38:16;;;;;;;1999.90;999.90;;;;;;;0.17;60.55;101488.44;5035750;27;96939;-71
2022/01/10 09:40:45;;;;;;;1999.90;999.90;;;;;;;0.15;60.51;101492.69;5035744;27;97153;-68
2022/01/10 09:43:18;;;;;;;1999.90;999.90;;;;;;;0.16;61.11;101497.13;5030416;27;97240;-68
2022/01/10 09:45:47;;;;;;;1999.90;999.90;;;;;;;0.18;60.46;101507.69;5019826;27;98024;-68
2022/01/10 09:48:16;;;;;;;1999.90;999.90;;;;;;;0.20;60.81;101501.78;5021841;27;97294;-69
2022/01/10 09:50:44;;;;;;;1999.90;999.90;;;;;;;0.23;60.35;101508.94;5012969;27;97653;-68
2022/01/10 09:53:14;;;;;;;1999.90;999.90;;;;;;;0.22;60.59;101509.75;5015755;27;99221;-68
2022/01/10 09:55:42;;;;;;;1999.90;999.90;;;;;;;0.23;60.84;101515.91;5021241;27;98730;-69
2022/01/10 09:58:12;;;;;;;1999.90;999.90;;;;;;;0.25;60.33;101519.56;5028629;27;96815;-68
2022/01/10 10:00:40;;;;;;;1999.90;999.90;;;;;;;0.27;60.78;101520.56;5022504;27;96837;-69
2022/01/10 10:03:08;;;;;;;1999.90;999.90;;;;;;;0.30;60.26;101531.28;5023879;27;98879;-68
2022/01/10 10:05:36;;;;;;;1999.90;999.90;;;;;;;0.30;60.43;101532.22;5022001;27;97881;-69
2022/01/10 10:08:04;;;;;;;1999.90;999.90;;;;;;;0.31;60.42;101535.72;5017424;27;96819;-70
2022/01/10 10:10:32;;;;;;;1999.90;999.90;;;;;;;0.12;60.88;101550.00;5003253;27;96724;-70
2022/01/10 10:13:00;;;;;;;1999.90;999.90;;;;;;;0.08;61.43;101542.72;5026712;27;99762;-69
2022/01/10 10:15:32;;;;;;;1999.90;999.90;;;;;;;0.07;61.39;101545.22;5023232;27;98710;-69
2022/01/10 10:18:00;;;;;;;1999.90;999.90;;;;;;;0.03;61.38;101551.94;5030016;27;98050;-68
2022/01/10 10:20:28;;;;;;;1999.90;999.90;;;;;;;0.06;61.34;101549.53;5019059;27;98065;-68
2022/01/10 10:23:18;;;;;;;1999.90;999.90;;;;;;;0.10;61.34;101558.56;5019304;27;100457;-68
2022/01/10 10:25:48;;;;;;;1999.90;999.90;;;;;;;0.07;61.45;101564.47;5013753;27;99674;-68
2022/01/10 10:28:16;;;;;;;1999.90;999.90;;;;;;;0.03;61.58;101567.63;5029686;27;96679;-68
2022/01/10 10:30:45;;;;;;;1999.90;999.90;;;;;;;0.05;61.78;101573.91;5022540;27;96829;-68
2022/01/10 10:33:15;;;;;;;1999.90;999.90;;;;;;;0.07;61.55;101571.41;5026157;27;98862;-67
2022/01/10 10:35:44;;;;;;;1999.90;999.90;;;;;;;0.11;61.60;101576.06;5027399;27;98578;-68
2022/01/10 10:38:12;;;;;;;1999.90;999.90;;;;;;;0.15;61.65;101578.13;5007693;28;96885;-68
2022/01/10 10:40:41;;;;;;;1999.90;999.90;;;;;;;0.17;61.04;101576.53;5017300;27;96708;-69
2022/01/10 10:43:09;;;;;;;1999.90;999.90;;;;;;;0.19;61.60;101583.69;5020406;27;97994;-68
2022/01/10 10:45:38;;;;;;;1999.90;999.90;;;;;;;0.19;61.67;101588.91;5027326;27;97526;-69
2022/01/10 10:48:09;;;;;;;1999.90;999.90;;;;;;;0.19;61.41;101588.91;5012373;27;97074;-68
2022/01/10 10:50:45;;;;;;;1999.90;999.90;;;;;;;0.17;61.34;101587.91;4995081;28;96984;-72
2022/01/10 10:53:15;;;;;;;1999.90;999.90;;;;;;;0.17;61.39;101590.50;5026238;27;98074;-69
2022/01/10 10:55:44;;;;;;;1999.90;999.90;;;;;;;0.18;61.65;101601.91;5014813;27;98046;-70
2022/01/10 10:58:13;;;;;;;1999.90;999.90;;;;;;;0.18;61.76;101597.59;5000969;28;97130;-68
2022/01/10 11:00:41;;;;;;;1999.90;999.90;;;;;;;0.16;61.41;101598.25;5017922;27;96986;-68
2022/01/10 11:03:12;;;;;;;1999.90;999.90;;;;;;;0.18;61.20;101608.06;5026037;27;98205;-70
2022/01/10 11:05:40;;;;;;;1999.90;999.90;;;;;;;0.23;61.74;101610.13;5026591;27;100761;-70
2022/01/10 11:08:08;;;;;;;1999.90;999.90;;;;;;;0.23;61.41;101611.00;5031687;27;97088;-70